createdAt,value
2023-05-30T00:00:33.283Z,95272.00
2023-05-30T00:01:33.268Z,95272.00
2023-05-30T00:02:33.458Z,95269.00
2023-05-30T00:03:33.481Z,95268.00
2023-05-30T00:04:33.530Z,95269.00
2023-05-30T00:05:33.445Z,95264.00
2023-05-30T00:06:33.463Z,95261.00
2023-05-30T00:07:33.495Z,95262.00
2023-05-30T00:08:33.668Z,95261.00
2023-05-30T00:09:33.589Z,95258.00
2023-05-30T00:10:33.563Z,95256.00
2023-05-30T00:11:33.575Z,95257.00
2023-05-30T00:12:33.575Z,95258.00
2023-05-30T00:13:33.667Z,95257.00
2023-05-30T00:14:33.670Z,95258.00
2023-05-30T00:15:33.623Z,95258.00
2023-05-30T00:16:33.731Z,95257.00
2023-05-30T00:17:33.701Z,95256.00
2023-05-30T00:18:33.632Z,95259.00
2023-05-30T00:19:33.653Z,95259.00
2023-05-30T00:20:33.640Z,95260.00
2023-05-30T00:21:33.606Z,95258.00
2023-05-30T00:22:33.631Z,95260.00
2023-05-30T00:23:33.592Z,95262.00
2023-05-30T00:24:33.616Z,95265.00
2023-05-30T00:25:33.609Z,95265.00
2023-05-30T00:26:33.544Z,95264.00
2023-05-30T00:27:33.556Z,95267.00
2023-05-30T00:28:33.536Z,95267.00
2023-05-30T00:29:33.517Z,95266.00
2023-05-30T00:30:33.496Z,95264.00
2023-05-30T00:31:33.548Z,95268.00
2023-05-30T00:32:33.504Z,95267.00
2023-05-30T00:33:33.497Z,95267.00
2023-05-30T00:34:33.491Z,95266.00
2023-05-30T00:35:33.456Z,95266.00
2023-05-30T00:36:33.458Z,95268.00
2023-05-30T00:37:33.433Z,95266.00
2023-05-30T00:38:33.431Z,95267.00
2023-05-30T00:39:33.440Z,95267.00
2023-05-30T00:40:33.409Z,95264.00
2023-05-30T00:41:33.385Z,95267.00
2023-05-30T00:42:33.398Z,95267.00
2023-05-30T00:43:33.363Z,95267.00
2023-05-30T00:44:33.383Z,95266.00
2023-05-30T00:45:33.384Z,95267.00
2023-05-30T00:46:33.530Z,95266.00
2023-05-30T00:47:33.352Z,95267.00
2023-05-30T00:48:33.351Z,95266.00
2023-05-30T00:49:33.394Z,95265.00
2023-05-30T00:50:33.405Z,95265.00
2023-05-30T00:51:33.436Z,95265.00
2023-05-30T00:52:33.417Z,95265.00
2023-05-30T00:53:33.366Z,95266.00
2023-05-30T00:54:33.434Z,95266.00
2023-05-30T00:55:33.401Z,95267.00
2023-05-30T00:56:33.383Z,95269.00
2023-05-30T00:57:33.356Z,95270.00
2023-05-30T00:58:33.379Z,95271.00
2023-05-30T00:59:33.357Z,95271.00
2023-05-30T01:00:33.322Z,95272.00
2023-05-30T01:01:33.395Z,95273.00
2023-05-30T01:02:33.342Z,95273.00
2023-05-30T01:03:33.363Z,95272.00
2023-05-30T01:04:33.272Z,95270.00
2023-05-30T01:05:33.237Z,95272.00
2023-05-30T01:06:33.257Z,95272.00
2023-05-30T01:07:33.265Z,95274.00
2023-05-30T01:08:33.268Z,95275.00
2023-05-30T01:09:33.282Z,95275.00
2023-05-30T01:10:33.295Z,95276.00
2023-05-30T01:11:33.245Z,95277.00
2023-05-30T01:12:33.267Z,95280.00
2023-05-30T01:13:33.225Z,95281.00
2023-05-30T01:14:33.217Z,95280.00
2023-05-30T01:15:33.243Z,95281.00
2023-05-30T01:16:33.301Z,95282.00
2023-05-30T01:17:33.244Z,95284.00
2023-05-30T01:18:33.236Z,95284.00
2023-05-30T01:19:33.190Z,95282.00
2023-05-30T01:20:33.266Z,95282.00
2023-05-30T01:21:33.206Z,95281.00
2023-05-30T01:22:33.187Z,95280.00
2023-05-30T01:23:33.197Z,95280.00
2023-05-30T01:24:33.184Z,95279.00
2023-05-30T01:25:33.191Z,95282.00
2023-05-30T01:26:33.146Z,95278.00
2023-05-30T01:27:33.137Z,95276.00
2023-05-30T01:28:33.153Z,95275.00
2023-05-30T01:29:33.131Z,95275.00
2023-05-30T01:30:33.106Z,95272.00
2023-05-30T01:31:33.172Z,95274.00
2023-05-30T01:32:33.219Z,95274.00
2023-05-30T01:33:33.126Z,95274.00
2023-05-30T01:34:33.111Z,95277.00
2023-05-30T01:35:33.093Z,95277.00
2023-05-30T01:36:33.064Z,95280.00
2023-05-30T01:37:33.039Z,95280.00
2023-05-30T01:38:33.050Z,95281.00
2023-05-30T01:39:33.045Z,95283.00
2023-05-30T01:40:33.028Z,95287.00
2023-05-30T01:41:33.024Z,95284.00
2023-05-30T01:42:32.987Z,95288.00
2023-05-30T01:43:32.979Z,95287.00
2023-05-30T01:44:32.994Z,95288.00
2023-05-30T01:45:32.960Z,95288.00
2023-05-30T01:46:32.991Z,95288.00
2023-05-30T01:47:32.962Z,95288.00
2023-05-30T01:48:32.922Z,95286.00
2023-05-30T01:49:33.014Z,95288.00
2023-05-30T01:50:32.882Z,95289.00
2023-05-30T01:51:32.890Z,95286.00
2023-05-30T01:52:32.945Z,95290.00
2023-05-30T01:53:32.942Z,95290.00
2023-05-30T01:54:32.991Z,95288.00
2023-05-30T01:55:33.027Z,95289.00
2023-05-30T01:56:33.057Z,95291.00
2023-05-30T01:57:33.073Z,95292.00
2023-05-30T01:58:33.104Z,95294.00
2023-05-30T01:59:33.130Z,95294.00
2023-05-30T02:00:33.183Z,95295.00
2023-05-30T02:01:33.184Z,95296.00
2023-05-30T02:02:33.245Z,95294.00
2023-05-30T02:03:33.217Z,95297.00
2023-05-30T02:04:33.193Z,95296.00
2023-05-30T02:05:33.274Z,95297.00
2023-05-30T02:06:33.220Z,95297.00
2023-05-30T02:07:33.306Z,95296.00
2023-05-30T02:08:33.311Z,95297.00
2023-05-30T02:09:33.348Z,95295.00
2023-05-30T02:10:33.293Z,95297.00
2023-05-30T02:11:33.344Z,95297.00
2023-05-30T02:12:33.320Z,95296.00
2023-05-30T02:13:33.293Z,95295.00
2023-05-30T02:14:33.330Z,95298.00
2023-05-30T02:15:33.274Z,95299.00
2023-05-30T02:16:33.303Z,95299.00
2023-05-30T02:17:33.280Z,95299.00
2023-05-30T02:18:33.206Z,95297.00
2023-05-30T02:19:33.196Z,95298.00
2023-05-30T02:20:33.243Z,95298.00
2023-05-30T02:21:33.172Z,95298.00
2023-05-30T02:22:33.185Z,95299.00
2023-05-30T02:23:33.160Z,95299.00
2023-05-30T02:24:33.159Z,95298.00
2023-05-30T02:25:33.164Z,95298.00
2023-05-30T02:26:33.188Z,95299.00
2023-05-30T02:27:33.149Z,95300.00
2023-05-30T02:28:33.110Z,95299.00
2023-05-30T02:29:33.073Z,95301.00
2023-05-30T02:30:33.091Z,95303.00
2023-05-30T02:31:33.105Z,95300.00
2023-05-30T02:32:33.217Z,95301.00
2023-05-30T02:33:33.047Z,95303.00
2023-05-30T02:34:33.023Z,95302.00
2023-05-30T02:35:33.031Z,95303.00
2023-05-30T02:36:33.042Z,95303.00
2023-05-30T02:37:32.988Z,95301.00
2023-05-30T02:38:33.007Z,95303.00
2023-05-30T02:39:33.012Z,95304.00
2023-05-30T02:40:33.009Z,95304.00
2023-05-30T02:41:33.001Z,95304.00
2023-05-30T02:42:32.989Z,95308.00
2023-05-30T02:43:32.950Z,95305.00
2023-05-30T02:44:32.991Z,95308.00
2023-05-30T02:45:33.005Z,95309.00
2023-05-30T02:46:33.000Z,95309.00
2023-05-30T02:47:32.938Z,95311.00
2023-05-30T02:48:32.945Z,95312.00
2023-05-30T02:49:32.937Z,95313.00
2023-05-30T02:50:32.918Z,95314.00
2023-05-30T02:51:32.902Z,95315.00
2023-05-30T02:52:32.939Z,95318.00
2023-05-30T02:53:32.912Z,95318.00
2023-05-30T02:54:32.953Z,95318.00
2023-05-30T02:55:32.899Z,95318.00
2023-05-30T02:56:32.881Z,95319.00
2023-05-30T02:57:32.859Z,95318.00
2023-05-30T02:58:32.836Z,95317.00
2023-05-30T02:59:32.867Z,95317.00
2023-05-30T03:00:32.843Z,95320.00
2023-05-30T03:01:32.876Z,95319.00
2023-05-30T03:02:32.881Z,95319.00
2023-05-30T03:03:32.908Z,95319.00
2023-05-30T03:04:32.830Z,95320.00
2023-05-30T03:05:32.816Z,95319.00
2023-05-30T03:06:32.850Z,95321.00
2023-05-30T03:07:32.828Z,95318.00
2023-05-30T03:08:32.806Z,95318.00
2023-05-30T03:09:32.810Z,95319.00
2023-05-30T03:10:32.781Z,95317.00
2023-05-30T03:11:32.777Z,95320.00
2023-05-30T03:12:32.773Z,95318.00
2023-05-30T03:13:32.767Z,95319.00
2023-05-30T03:14:32.759Z,95317.00
2023-05-30T03:15:32.748Z,95318.00
2023-05-30T03:16:32.831Z,95318.00
2023-05-30T03:17:32.791Z,95318.00
2023-05-30T03:18:32.733Z,95319.00
2023-05-30T03:19:32.791Z,95316.00
2023-05-30T03:20:32.817Z,95317.00
2023-05-30T03:21:32.779Z,95317.00
2023-05-30T03:22:32.749Z,95317.00
2023-05-30T03:23:32.786Z,95317.00
2023-05-30T03:24:32.776Z,95316.00
2023-05-30T03:25:32.759Z,95317.00
2023-05-30T03:26:32.811Z,95319.00
2023-05-30T03:27:32.792Z,95319.00
2023-05-30T03:28:32.769Z,95322.00
2023-05-30T03:29:32.781Z,95322.00
2023-05-30T03:30:32.764Z,95324.00
2023-05-30T03:31:32.897Z,95322.00
2023-05-30T03:32:32.874Z,95323.00
2023-05-30T03:33:32.776Z,95323.00
2023-05-30T03:34:32.779Z,95325.00
2023-05-30T03:35:34.119Z,95328.00
2023-05-30T03:36:32.777Z,95327.00
2023-05-30T03:37:32.773Z,95327.00
2023-05-30T03:38:32.739Z,95326.00
2023-05-30T03:39:32.750Z,95328.00
2023-05-30T03:40:32.761Z,95328.00
2023-05-30T03:41:32.710Z,95327.00
2023-05-30T03:42:32.712Z,95325.00
2023-05-30T03:43:32.721Z,95327.00
2023-05-30T03:44:33.216Z,95330.00
2023-05-30T03:45:32.681Z,95330.00
2023-05-30T03:46:32.805Z,95331.00
2023-05-30T03:47:32.721Z,95333.00
2023-05-30T03:48:32.650Z,95333.00
2023-05-30T03:49:32.699Z,95335.00
2023-05-30T03:50:32.643Z,95336.00
2023-05-30T03:51:32.662Z,95337.00
2023-05-30T03:52:32.626Z,95340.00
2023-05-30T03:53:32.659Z,95340.00
2023-05-30T03:54:32.609Z,95341.00
2023-05-30T03:55:32.611Z,95342.00
2023-05-30T03:56:32.706Z,95342.00
2023-05-30T03:57:32.614Z,95343.00
2023-05-30T03:58:32.608Z,95342.00
2023-05-30T03:59:32.642Z,95344.00
2023-05-30T04:00:32.609Z,95347.00
2023-05-30T04:01:32.633Z,95346.00
2023-05-30T04:02:32.754Z,95346.00
2023-05-30T04:03:32.637Z,95344.00
2023-05-30T04:04:32.579Z,95345.00
2023-05-30T04:05:32.592Z,95346.00
2023-05-30T04:06:32.566Z,95345.00
2023-05-30T04:07:32.532Z,95348.00
2023-05-30T04:08:32.531Z,95346.00
2023-05-30T04:09:32.531Z,95348.00
2023-05-30T04:10:32.532Z,95348.00
2023-05-30T04:11:32.506Z,95347.00
2023-05-30T04:12:32.522Z,95348.00
2023-05-30T04:13:32.521Z,95347.00
2023-05-30T04:14:32.481Z,95349.00
2023-05-30T04:15:32.456Z,95351.00
2023-05-30T04:16:32.583Z,95350.00
2023-05-30T04:17:32.497Z,95352.00
2023-05-30T04:18:32.463Z,95353.00
2023-05-30T04:19:32.438Z,95352.00
2023-05-30T04:20:32.530Z,95353.00
2023-05-30T04:21:32.464Z,95352.00
2023-05-30T04:22:32.406Z,95352.00
2023-05-30T04:23:32.392Z,95349.00
2023-05-30T04:24:32.458Z,95349.00
2023-05-30T04:25:32.424Z,95351.00
2023-05-30T04:26:32.392Z,95351.00
2023-05-30T04:27:32.395Z,95350.00
2023-05-30T04:28:32.356Z,95351.00
2023-05-30T04:29:32.412Z,95353.00
2023-05-30T04:30:32.364Z,95354.00
2023-05-30T04:31:32.360Z,95354.00
2023-05-30T04:32:32.401Z,95355.00
2023-05-30T04:33:32.316Z,95356.00
2023-05-30T04:34:32.270Z,95356.00
2023-05-30T04:35:32.743Z,95355.00
2023-05-30T04:36:32.288Z,95357.00
2023-05-30T04:37:32.262Z,95356.00
2023-05-30T04:38:32.276Z,95356.00
2023-05-30T04:39:32.286Z,95357.00
2023-05-30T04:40:32.260Z,95356.00
2023-05-30T04:41:32.222Z,95357.00
2023-05-30T04:42:32.189Z,95359.00
2023-05-30T04:43:32.208Z,95360.00
2023-05-30T04:44:32.206Z,95360.00
2023-05-30T04:45:32.171Z,95360.00
2023-05-30T04:46:32.214Z,95359.00
2023-05-30T04:47:32.176Z,95363.00
2023-05-30T04:48:32.133Z,95363.00
2023-05-30T04:49:32.147Z,95366.00
2023-05-30T04:50:32.117Z,95368.00
2023-05-30T04:51:32.123Z,95369.00
2023-05-30T04:52:32.120Z,95370.00
2023-05-30T04:53:32.082Z,95370.00
2023-05-30T04:54:32.094Z,95369.00
2023-05-30T04:55:32.098Z,95369.00
2023-05-30T04:56:32.135Z,95371.00
2023-05-30T04:57:32.093Z,95369.00
2023-05-30T04:58:32.104Z,95370.00
2023-05-30T04:59:32.072Z,95368.00
2023-05-30T05:00:32.070Z,95368.00
2023-05-30T05:01:32.115Z,95368.00
2023-05-30T05:02:32.148Z,95369.00
2023-05-30T05:03:32.216Z,95371.00
2023-05-30T05:04:32.059Z,95372.00
2023-05-30T05:05:32.012Z,95371.00
2023-05-30T05:06:32.035Z,95374.00
2023-05-30T05:07:40.365Z,95373.00
2023-05-30T05:08:33.031Z,95373.00
2023-05-30T05:09:32.025Z,95374.00
2023-05-30T05:10:32.000Z,95373.00
2023-05-30T05:11:31.983Z,95373.00
2023-05-30T05:12:31.962Z,95372.00
2023-05-30T05:13:31.959Z,95373.00
2023-05-30T05:14:31.979Z,95373.00
2023-05-30T05:15:31.957Z,95375.00
2023-05-30T05:16:32.007Z,95374.00
2023-05-30T05:17:31.980Z,95375.00
2023-05-30T05:18:31.899Z,95377.00
2023-05-30T05:19:31.874Z,95376.00
2023-05-30T05:20:31.929Z,95377.00
2023-05-30T05:21:31.905Z,95376.00
2023-05-30T05:22:31.879Z,95377.00
2023-05-30T05:23:31.827Z,95376.00
2023-05-30T05:24:31.845Z,95376.00
2023-05-30T05:25:31.853Z,95375.00
2023-05-30T05:26:31.812Z,95376.00
2023-05-30T05:27:31.796Z,95376.00
2023-05-30T05:28:31.808Z,95377.00
2023-05-30T05:29:33.832Z,95375.00
2023-05-30T05:30:31.810Z,95373.00
2023-05-30T05:31:31.809Z,95373.00
2023-05-30T05:32:31.824Z,95374.00
2023-05-30T05:33:31.775Z,95373.00
2023-05-30T05:34:31.749Z,95373.00
2023-05-30T05:35:31.710Z,95372.00
2023-05-30T05:36:31.720Z,95371.00
2023-05-30T05:37:31.717Z,95371.00
2023-05-30T05:38:31.696Z,95371.00
2023-05-30T05:39:31.698Z,95371.00
2023-05-30T05:40:31.683Z,95371.00
2023-05-30T05:41:31.668Z,95373.00
2023-05-30T05:42:31.657Z,95373.00
2023-05-30T05:43:31.645Z,95374.00
2023-05-30T05:44:31.719Z,95376.00
2023-05-30T05:45:31.634Z,95376.00
2023-05-30T05:46:31.637Z,95378.00
2023-05-30T05:47:31.682Z,95374.00
2023-05-30T05:48:31.654Z,95376.00
2023-05-30T05:49:31.593Z,95375.00
2023-05-30T05:50:31.596Z,95376.00
2023-05-30T05:51:31.610Z,95377.00
2023-05-30T05:52:31.610Z,95376.00
2023-05-30T05:53:31.670Z,95376.00
2023-05-30T05:54:31.669Z,95375.00
2023-05-30T05:55:31.727Z,95375.00
2023-05-30T05:56:31.783Z,95376.00
2023-05-30T05:57:31.812Z,95378.00
2023-05-30T05:58:31.871Z,95378.00
2023-05-30T05:59:31.926Z,95380.00
2023-05-30T06:00:31.947Z,95381.00
2023-05-30T06:01:31.960Z,95383.00
2023-05-30T06:02:32.030Z,95383.00
2023-05-30T06:03:32.078Z,95383.00
2023-05-30T06:04:32.078Z,95385.00
2023-05-30T06:05:32.054Z,95387.00
2023-05-30T06:06:32.010Z,95387.00
2023-05-30T06:07:31.997Z,95390.00
2023-05-30T06:08:32.026Z,95389.00
2023-05-30T06:09:32.015Z,95390.00
2023-05-30T06:10:32.006Z,95389.00
2023-05-30T06:11:31.988Z,95390.00
2023-05-30T06:12:31.985Z,95387.00
2023-05-30T06:13:32.017Z,95391.00
2023-05-30T06:14:32.061Z,95390.00
2023-05-30T06:15:32.098Z,95390.00
2023-05-30T06:16:32.233Z,95390.00
2023-05-30T06:17:32.183Z,95386.00
2023-05-30T06:18:32.246Z,95384.00
2023-05-30T06:19:32.299Z,95387.00
2023-05-30T06:20:32.353Z,95389.00
2023-05-30T06:21:32.483Z,95386.00
2023-05-30T06:22:32.410Z,95389.00
2023-05-30T06:23:32.467Z,95388.00
2023-05-30T06:24:32.497Z,95387.00
2023-05-30T06:25:32.589Z,95385.00
2023-05-30T06:26:32.613Z,95386.00
2023-05-30T06:27:32.624Z,95384.00
2023-05-30T06:28:32.663Z,95384.00
2023-05-30T06:29:33.033Z,95383.00
2023-05-30T06:30:35.803Z,95382.00
2023-05-30T06:31:32.721Z,95381.00
2023-05-30T06:32:32.807Z,95384.00
2023-05-30T06:33:32.705Z,95380.00
2023-05-30T06:34:32.685Z,95384.00
2023-05-30T06:35:32.646Z,95382.00
2023-05-30T06:36:32.624Z,95383.00
2023-05-30T06:37:32.614Z,95383.00
2023-05-30T06:38:32.599Z,95381.00
2023-05-30T06:39:32.565Z,95382.00
2023-05-30T06:40:32.525Z,95382.00
2023-05-30T06:41:32.557Z,95384.00
2023-05-30T06:42:32.522Z,95384.00
2023-05-30T06:43:32.468Z,95385.00
2023-05-30T06:44:32.481Z,95387.00
2023-05-30T06:45:32.478Z,95387.00
2023-05-30T06:46:32.551Z,95383.00
2023-05-30T06:47:32.433Z,95380.00
2023-05-30T06:48:32.378Z,95377.00
2023-05-30T06:49:32.423Z,95376.00
2023-05-30T06:50:32.398Z,95376.00
2023-05-30T06:51:32.380Z,95374.00
2023-05-30T06:52:32.444Z,95375.00
2023-05-30T06:53:32.369Z,95370.00
2023-05-30T06:54:32.324Z,95373.00
2023-05-30T06:55:32.298Z,95373.00
2023-05-30T06:56:32.277Z,95373.00
2023-05-30T06:57:32.260Z,95369.00
2023-05-30T06:58:32.283Z,95372.00
2023-05-30T06:59:32.224Z,95372.00
2023-05-30T07:00:32.224Z,95369.00
2023-05-30T07:01:32.240Z,95371.00
2023-05-30T07:02:32.237Z,95371.00
2023-05-30T07:03:32.179Z,95373.00
2023-05-30T07:04:32.200Z,95371.00
2023-05-30T07:05:32.108Z,95372.00
2023-05-30T07:06:32.112Z,95373.00
2023-05-30T07:07:32.059Z,95373.00
2023-05-30T07:08:32.118Z,95373.00
2023-05-30T07:09:32.049Z,95375.00
2023-05-30T07:10:32.009Z,95372.00
2023-05-30T07:11:31.995Z,95375.00
2023-05-30T07:12:31.982Z,95373.00
2023-05-30T07:13:31.992Z,95372.00
2023-05-30T07:14:31.950Z,95373.00
2023-05-30T07:15:31.943Z,95375.00
2023-05-30T07:16:32.005Z,95373.00
2023-05-30T07:17:31.953Z,95374.00
2023-05-30T07:18:31.850Z,95373.00
2023-05-30T07:19:31.862Z,95369.00
2023-05-30T07:20:31.838Z,95367.00
2023-05-30T07:21:31.783Z,95369.00
2023-05-30T07:22:31.786Z,95369.00
2023-05-30T07:23:31.788Z,95369.00
2023-05-30T07:24:31.782Z,95370.00
2023-05-30T07:25:31.822Z,95368.00
2023-05-30T07:26:31.864Z,95369.00
2023-05-30T07:27:31.913Z,95370.00
2023-05-30T07:28:31.950Z,95373.00
2023-05-30T07:29:32.003Z,95369.00
2023-05-30T07:30:32.024Z,95368.00
2023-05-30T07:31:32.095Z,95367.00
2023-05-30T07:32:32.117Z,95366.00
2023-05-30T07:33:32.134Z,95365.00
2023-05-30T07:34:32.171Z,95365.00
2023-05-30T07:35:32.186Z,95363.00
2023-05-30T07:36:32.187Z,95363.00
2023-05-30T07:37:32.256Z,95360.00
2023-05-30T07:38:32.257Z,95358.00
2023-05-30T07:39:32.262Z,95354.00
2023-05-30T07:40:32.320Z,95352.00
2023-05-30T07:41:32.344Z,95353.00
2023-05-30T07:42:32.365Z,95353.00
2023-05-30T07:43:32.395Z,95353.00
2023-05-30T07:44:32.432Z,95352.00
2023-05-30T07:45:32.509Z,95352.00
2023-05-30T07:46:32.512Z,95351.00
2023-05-30T07:47:32.547Z,95353.00
2023-05-30T07:48:32.554Z,95354.00
2023-05-30T07:49:32.587Z,95353.00
2023-05-30T07:50:32.634Z,95354.00
2023-05-30T07:51:32.652Z,95353.00
2023-05-30T07:52:32.654Z,95353.00
2023-05-30T07:53:32.701Z,95351.00
2023-05-30T07:54:32.715Z,95350.00
2023-05-30T07:55:32.711Z,95352.00
2023-05-30T07:56:32.740Z,95349.00
2023-05-30T07:57:32.725Z,95350.00
2023-05-30T07:58:32.759Z,95351.00
2023-05-30T07:59:32.744Z,95351.00
2023-05-30T08:00:32.772Z,95351.00
2023-05-30T08:01:32.755Z,95348.00
2023-05-30T08:02:32.822Z,95350.00
2023-05-30T08:03:32.891Z,95347.00
2023-05-30T08:04:32.754Z,95348.00
2023-05-30T08:05:32.787Z,95346.00
2023-05-30T08:06:32.734Z,95347.00
2023-05-30T08:07:32.738Z,95345.00
2023-05-30T08:08:32.705Z,95343.00
2023-05-30T08:09:32.683Z,95343.00
2023-05-30T08:10:32.695Z,95345.00
2023-05-30T08:11:32.682Z,95343.00
2023-05-30T08:12:32.714Z,95342.00
2023-05-30T08:13:32.663Z,95342.00
2023-05-30T08:14:32.678Z,95340.00
2023-05-30T08:15:32.628Z,95340.00
2023-05-30T08:16:32.679Z,95339.00
2023-05-30T08:17:32.672Z,95336.00
2023-05-30T08:18:32.664Z,95334.00
2023-05-30T08:19:32.672Z,95334.00
2023-05-30T08:20:32.605Z,95336.00
2023-05-30T08:21:32.594Z,95334.00
2023-05-30T08:22:32.542Z,95333.00
2023-05-30T08:23:32.496Z,95333.00
2023-05-30T08:24:32.532Z,95331.00
2023-05-30T08:25:32.481Z,95330.00
2023-05-30T08:26:32.501Z,95328.00
2023-05-30T08:27:32.474Z,95329.00
2023-05-30T08:28:32.459Z,95328.00
2023-05-30T08:29:32.457Z,95328.00
2023-05-30T08:30:34.678Z,95326.00
2023-05-30T08:31:32.440Z,95327.00
2023-05-30T08:32:32.369Z,95325.00
2023-05-30T08:33:32.337Z,95324.00
2023-05-30T08:34:32.332Z,95322.00
2023-05-30T08:35:32.297Z,95322.00
2023-05-30T08:36:32.250Z,95322.00
2023-05-30T08:37:32.265Z,95320.00
2023-05-30T08:38:32.219Z,95318.00
2023-05-30T08:39:32.171Z,95318.00
2023-05-30T08:40:32.183Z,95318.00
2023-05-30T08:41:32.154Z,95317.00
2023-05-30T08:42:32.145Z,95317.00
2023-05-30T08:43:32.147Z,95318.00
2023-05-30T08:44:32.097Z,95315.00
2023-05-30T08:45:32.128Z,95314.00
2023-05-30T08:46:32.219Z,95312.00
2023-05-30T08:47:32.085Z,95314.00
2023-05-30T08:48:32.057Z,95311.00
2023-05-30T08:49:32.040Z,95310.00
2023-05-30T08:50:32.041Z,95311.00
2023-05-30T08:51:32.025Z,95311.00
2023-05-30T08:52:32.023Z,95307.00
2023-05-30T08:53:31.999Z,95306.00
2023-05-30T08:54:31.968Z,95303.00
2023-05-30T08:55:31.967Z,95304.00
2023-05-30T08:56:31.942Z,95301.00
2023-05-30T08:57:31.924Z,95304.00
2023-05-30T08:58:31.923Z,95299.00
2023-05-30T08:59:31.929Z,95298.00
2023-05-30T09:00:31.902Z,95296.00
2023-05-30T09:01:31.927Z,95295.00
2023-05-30T09:02:31.926Z,95292.00
2023-05-30T09:03:31.891Z,95290.00
2023-05-30T09:04:31.871Z,95292.00
2023-05-30T09:05:31.841Z,95291.00
2023-05-30T09:06:31.820Z,95291.00
2023-05-30T09:07:31.805Z,95291.00
2023-05-30T09:08:31.765Z,95291.00
2023-05-30T09:09:31.754Z,95290.00
2023-05-30T09:10:31.770Z,95288.00
2023-05-30T09:11:31.749Z,95288.00
2023-05-30T09:12:31.718Z,95284.00
2023-05-30T09:13:31.705Z,95282.00
2023-05-30T09:14:31.680Z,95284.00
2023-05-30T09:15:31.700Z,95282.00
2023-05-30T09:16:31.739Z,95281.00
2023-05-30T09:17:31.699Z,95277.00
2023-05-30T09:19:31.642Z,95275.00
2023-05-30T09:20:31.651Z,95272.00
2023-05-30T09:21:31.579Z,95269.00
2023-05-30T09:22:31.549Z,95271.00
2023-05-30T09:23:31.579Z,95268.00
2023-05-30T09:24:31.523Z,95270.00
2023-05-30T09:25:31.540Z,95267.00
2023-05-30T09:26:31.504Z,95268.00
2023-05-30T09:27:31.521Z,95267.00
2023-05-30T09:28:31.508Z,95267.00
2023-05-30T09:29:31.467Z,95265.00
2023-05-30T09:30:31.494Z,95266.00
2023-05-30T09:31:31.535Z,95267.00
2023-05-30T09:32:31.465Z,95266.00
2023-05-30T09:33:31.393Z,95266.00
2023-05-30T09:34:31.410Z,95264.00
2023-05-30T09:35:31.392Z,95265.00
2023-05-30T09:36:31.384Z,95266.00
2023-05-30T09:37:31.359Z,95268.00
2023-05-30T09:38:31.357Z,95266.00
2023-05-30T09:39:31.349Z,95265.00
2023-05-30T09:40:31.320Z,95263.00
2023-05-30T09:41:31.313Z,95259.00
2023-05-30T09:42:31.268Z,95256.00
2023-05-30T09:43:31.239Z,95257.00
2023-05-30T09:44:31.222Z,95254.00
2023-05-30T09:45:31.235Z,95250.00
2023-05-30T09:46:31.275Z,95250.00
2023-05-30T09:47:31.240Z,95250.00
2023-05-30T09:48:31.195Z,95249.00
2023-05-30T09:49:31.173Z,95247.00
2023-05-30T09:50:31.161Z,95248.00
2023-05-30T09:51:31.240Z,95247.00
2023-05-30T09:52:31.103Z,95247.00
2023-05-30T09:53:31.099Z,95247.00
2023-05-30T09:54:31.084Z,95248.00
2023-05-30T09:55:31.140Z,95248.00
2023-05-30T09:56:31.019Z,95246.00
2023-05-30T09:57:31.205Z,95245.00
2023-05-30T09:58:31.021Z,95244.00
2023-05-30T09:59:31.003Z,95242.00
2023-05-30T10:00:30.964Z,95241.00
2023-05-30T10:01:30.977Z,95238.00
2023-05-30T10:02:31.038Z,95237.00
2023-05-30T10:03:30.971Z,95237.00
2023-05-30T10:04:30.875Z,95239.00
2023-05-30T10:05:30.928Z,95236.00
2023-05-30T10:06:30.885Z,95235.00
2023-05-30T10:07:30.861Z,95235.00
2023-05-30T10:08:30.828Z,95234.00
2023-05-30T10:09:30.807Z,95230.00
2023-05-30T10:10:30.798Z,95227.00
2023-05-30T10:11:30.793Z,95227.00
2023-05-30T10:12:30.810Z,95224.00
2023-05-30T10:13:30.771Z,95222.00
2023-05-30T10:14:30.764Z,95223.00
2023-05-30T10:15:30.718Z,95219.00
2023-05-30T10:16:30.734Z,95218.00
2023-05-30T10:17:30.792Z,95214.00
2023-05-30T10:18:30.753Z,95214.00
2023-05-30T10:19:30.751Z,95208.00
2023-05-30T10:20:30.831Z,95207.00
2023-05-30T10:21:30.768Z,95207.00
2023-05-30T10:22:30.737Z,95205.00
2023-05-30T10:23:30.749Z,95211.00
2023-05-30T10:24:30.761Z,95210.00
2023-05-30T10:25:30.762Z,95204.00
2023-05-30T10:26:30.769Z,95203.00
2023-05-30T10:27:30.751Z,95200.00
2023-05-30T10:28:30.760Z,95197.00
2023-05-30T10:29:30.766Z,95196.00
2023-05-30T10:30:30.780Z,95193.00
2023-05-30T10:31:30.803Z,95193.00
2023-05-30T10:32:30.766Z,95193.00
2023-05-30T10:33:55.298Z,95195.00
2023-05-30T10:34:31.772Z,95194.00
2023-05-30T10:35:32.874Z,95194.00
2023-05-30T10:36:30.713Z,95188.00
2023-05-30T10:37:30.696Z,95190.00
2023-05-30T10:38:30.659Z,95187.00
2023-05-30T10:39:30.669Z,95184.00
2023-05-30T10:40:30.683Z,95183.00
2023-05-30T10:41:30.647Z,95184.00
2023-05-30T10:42:30.613Z,95190.00
2023-05-30T10:43:30.627Z,95184.00
2023-05-30T10:44:30.580Z,95181.00
2023-05-30T10:45:30.605Z,95183.00
2023-05-30T10:46:30.640Z,95184.00
2023-05-30T10:47:30.550Z,95184.00
2023-05-30T10:48:30.568Z,95179.00
2023-05-30T10:49:30.520Z,95177.00
2023-05-30T10:50:30.499Z,95176.00
2023-05-30T10:51:30.479Z,95177.00
2023-05-30T10:52:30.492Z,95174.00
2023-05-30T10:53:30.468Z,95174.00
2023-05-30T10:54:30.423Z,95174.00
2023-05-30T10:55:30.406Z,95174.00
2023-05-30T10:56:30.367Z,95173.00
2023-05-30T10:57:30.346Z,95168.00
2023-05-30T10:58:30.357Z,95171.00
2023-05-30T10:59:30.334Z,95169.00
2023-05-30T11:00:30.330Z,95171.00
2023-05-30T11:01:30.335Z,95174.00
2023-05-30T11:02:30.321Z,95168.00
2023-05-30T11:03:30.381Z,95166.00
2023-05-30T11:04:30.218Z,95161.00
2023-05-30T11:05:30.260Z,95163.00
2023-05-30T11:06:30.158Z,95165.00
2023-05-30T11:07:30.166Z,95159.00
2023-05-30T11:08:30.147Z,95165.00
2023-05-30T11:09:30.079Z,95163.00
2023-05-30T11:10:30.089Z,95163.00
2023-05-30T11:11:30.046Z,95160.00
2023-05-30T11:12:30.031Z,95158.00
2023-05-30T11:13:30.011Z,95157.00
2023-05-30T11:14:29.949Z,95160.00
2023-05-30T11:15:29.916Z,95161.00
2023-05-30T11:16:29.933Z,95156.00
2023-05-30T11:17:29.908Z,95154.00
2023-05-30T11:18:29.832Z,95150.00
2023-05-30T11:19:29.840Z,95154.00
2023-05-30T11:20:29.844Z,95153.00
2023-05-30T11:21:29.765Z,95148.00
2023-05-30T11:22:29.748Z,95151.00
2023-05-30T11:23:29.722Z,95148.00
2023-05-30T11:24:29.698Z,95154.00
2023-05-30T11:25:29.693Z,95147.00
2023-05-30T11:26:29.658Z,95147.00
2023-05-30T11:27:29.646Z,95145.00
2023-05-30T11:28:30.415Z,95150.00
2023-05-30T11:29:29.614Z,95148.00
2023-05-30T11:30:29.933Z,95144.00
2023-05-30T11:31:29.508Z,95145.00
2023-05-30T11:32:29.560Z,95142.00
2023-05-30T11:33:29.423Z,95140.00
2023-05-30T11:34:29.470Z,95138.00
2023-05-30T11:35:29.510Z,95133.00
2023-05-30T11:36:29.521Z,95130.00
2023-05-30T11:37:29.580Z,95130.00
2023-05-30T11:38:29.611Z,95126.00
2023-05-30T11:39:29.667Z,95127.00
2023-05-30T11:40:29.692Z,95129.00
2023-05-30T11:41:29.709Z,95122.00
2023-05-30T11:42:29.776Z,95118.00
2023-05-30T11:43:29.835Z,95122.00
2023-05-30T11:44:29.808Z,95121.00
2023-05-30T11:45:29.905Z,95119.00